Time;durP1;ratioP1;P1;durP2;ratioP2;P2;SDS_P1;SDS_P2;PMS_P1;PMS_P2;Temp;Humidity;BMP_temperature;BMP_pressure;BME280_temperature;BME280_humidity;BME280_pressure;Samples;Min_cycle;Max_cycle;Signal;HPM_P1;HPM_P2
2022/03/09 00:01:23;;;;;;;;;61.75;48.75;;;;;9.86;41.56;101271.28;5051169;28;45334;-64
2022/03/09 00:03:49;;;;;;;;;67.00;52.75;;;;;9.81;42.17;101264.47;5073087;28;47512;-61
2022/03/09 00:06:15;;;;;;;;;58.25;48.00;;;;;9.80;41.95;101260.06;5074287;28;45525;-61
2022/03/09 00:08:40;;;;;;;;;59.25;47.50;;;;;9.76;41.84;101254.00;5069768;28;45502;-60
2022/03/09 00:11:06;;;;;;;;;65.50;52.00;;;;;9.72;42.39;101260.38;5070937;28;44821;-60
2022/03/09 00:13:32;;;;;;;;;63.00;50.25;;;;;9.70;42.43;101259.59;5070050;28;45271;-62
2022/03/09 00:15:57;;;;;;;;;66.50;52.00;;;;;9.69;41.99;101266.69;5055085;28;44814;-60
2022/03/09 00:18:23;;;;;;;;;64.50;49.00;;;;;9.73;42.74;101267.44;5073117;28;45338;-58
2022/03/09 00:20:48;;;;;;;;;70.25;53.00;;;;;9.56;42.44;101244.22;5069994;28;45464;-61
2022/03/09 00:23:13;;;;;;;;;56.75;44.75;;;;;9.73;42.13;101272.75;5075136;28;45053;-60
2022/03/09 00:25:39;;;;;;;;;64.25;49.75;;;;;9.72;42.03;101266.56;5065869;28;45250;-61
2022/03/09 00:28:04;;;;;;;;;61.25;50.00;;;;;9.65;42.15;101261.59;5069261;28;45392;-60
2022/03/09 00:30:29;;;;;;;;;70.00;51.50;;;;;9.54;42.91;101246.09;5043333;28;44805;-61
2022/03/09 00:32:55;;;;;;;;;64.75;51.75;;;;;9.60;42.42;101261.75;5045093;28;46527;-59
2022/03/09 00:35:20;;;;;;;;;66.25;51.25;;;;;9.59;42.06;101261.81;5065767;28;45439;-59
2022/03/09 00:37:46;;;;;;;;;73.00;55.25;;;;;9.50;42.48;101254.22;5064933;28;44725;-63
2022/03/09 00:40:11;;;;;;;;;70.50;52.25;;;;;9.66;42.28;101279.25;5073953;28;45141;-59
2022/03/09 00:42:39;;;;;;;;;63.25;51.75;;;;;9.67;42.10;101288.94;5073330;28;45609;-59
2022/03/09 00:45:06;;;;;;;;;63.25;52.75;;;;;9.43;42.81;101249.19;5070662;28;45405;-59
2022/03/09 00:47:31;;;;;;;;;65.50;50.00;;;;;9.61;42.53;101279.41;5062245;28;45425;-59
2022/03/09 00:49:57;;;;;;;;;68.75;53.00;;;;;9.66;42.94;101285.41;5047471;28;45568;-60
2022/03/09 00:52:22;;;;;;;;;68.50;51.25;;;;;9.67;43.29;101291.59;5069078;28;45375;-62
2022/03/09 00:54:49;;;;;;;;;59.00;46.50;;;;;9.68;42.63;101290.66;5058888;28;44643;-61
2022/03/09 00:57:14;;;;;;;;;61.25;50.00;;;;;9.56;42.65;101270.78;5066118;28;45165;-61
2022/03/09 00:59:40;;;;;;;;;62.00;48.25;;;;;9.58;42.40;101278.69;5054166;28;45802;-61
2022/03/09 01:02:06;;;;;;;;;62.00;48.50;;;;;9.62;43.07;101293.56;5037505;28;46517;-61
2022/03/09 01:04:34;;;;;;;;;65.50;50.75;;;;;9.66;42.74;101304.00;5055771;28;45595;-60
2022/03/09 01:07:00;;;;;;;;;63.75;53.00;;;;;9.64;42.87;101305.00;5036855;28;45729;-62
2022/03/09 01:09:26;;;;;;;;;61.25;46.00;;;;;9.67;43.17;101302.22;5054710;28;45854;-60
2022/03/09 01:11:51;;;;;;;;;67.00;48.50;;;;;9.59;43.24;101291.03;5041319;28;46066;-64
2022/03/09 01:14:17;;;;;;;;;62.75;49.50;;;;;9.67;42.52;101310.19;5063565;28;45188;-61
2022/03/09 01:16:42;;;;;;;;;61.75;47.75;;;;;9.67;43.39;101308.41;5060421;28;45253;-61
2022/03/09 01:19:08;;;;;;;;;63.75;44.25;;;;;9.62;43.23;101306.84;5062504;28;45301;-60
2022/03/09 01:21:34;;;;;;;;;62.25;48.00;;;;;9.50;43.42;101292.25;5063059;28;45515;-65
2022/03/09 01:24:00;;;;;;;;;65.25;48.75;;;;;9.63;44.09;101305.91;5061786;28;45330;-59
2022/03/09 01:26:26;;;;;;;;;65.25;51.25;;;;;9.53;42.74;101289.50;5059243;28;45748;-63
2022/03/09 01:28:52;;;;;;;;;60.50;47.00;;;;;9.67;44.26;101310.19;5059400;28;45243;-62
2022/03/09 01:31:17;;;;;;;;;62.25;50.50;;;;;9.66;43.12;101313.78;5023007;28;46884;-64
2022/03/09 01:33:43;;;;;;;;;62.00;50.00;;;;;9.68;44.36;101317.22;5059297;28;45382;-62
2022/03/09 01:36:08;;;;;;;;;63.75;50.25;;;;;9.69;44.03;101313.63;5032070;28;45443;-62
2022/03/09 01:38:34;;;;;;;;;59.50;46.25;;;;;9.55;44.44;101290.31;5041942;28;45576;-61
2022/03/09 01:41:00;;;;;;;;;63.75;48.75;;;;;9.56;43.92;101281.41;5060251;28;46238;-62
2022/03/09 01:43:26;;;;;;;;;61.00;47.25;;;;;9.71;43.87;101306.47;5053009;28;45367;-62
2022/03/09 01:45:57;;;;;;;;;70.25;48.75;;;;;9.70;44.06;101297.63;5074902;28;45390;-63
2022/03/09 01:48:23;;;;;;;;;55.50;44.00;;;;;9.53;44.90;101265.59;5057729;28;45473;-61
2022/03/09 01:50:48;;;;;;;;;65.75;49.50;;;;;9.72;45.01;101294.91;5063305;28;45668;-59
2022/03/09 01:53:17;;;;;;;;;59.50;48.75;;;;;9.69;45.05;101295.03;5055410;28;45389;-62
2022/03/09 01:55:45;;;;;;;;;58.00;46.75;;;;;9.72;44.56;101297.56;5058487;28;45731;-62
2022/03/09 01:58:11;;;;;;;;;55.50;44.75;;;;;9.73;44.60;101293.97;5059438;28;45496;-61
2022/03/09 02:00:36;;;;;;;;;56.75;42.25;;;;;9.72;45.02;101295.78;5064047;28;46254;-64
2022/03/09 02:03:03;;;;;;;;;55.25;43.50;;;;;9.66;45.75;101281.91;5034152;28;46204;-60
2022/03/09 02:05:28;;;;;;;;;51.50;44.75;;;;;9.67;45.13;101283.63;5064826;28;44783;-62
2022/03/09 02:10:54;;;;;;;;;56.00;44.50;;;;;9.76;46.20;101293.84;5006272;28;45752;-62
2022/03/09 02:13:20;;;;;;;;;51.50;41.25;;;;;9.72;45.99;101281.63;5061030;28;44827;-61
2022/03/09 02:15:46;;;;;;;;;61.50;46.25;;;;;9.66;46.42;101261.53;5066359;28;47494;-64
2022/03/09 02:18:11;;;;;;;;;51.00;42.00;;;;;9.54;46.77;101255.84;5058900;28;45220;-60
2022/03/09 02:20:42;;;;;;;;;49.50;42.00;;;;;9.77;46.61;101286.78;5057899;28;46005;-64
2022/03/09 02:23:07;;;;;;;;;41.25;38.50;;;;;9.70;47.36;101280.84;5063151;28;45386;-64
2022/03/09 02:25:33;;;;;;;;;52.75;41.75;;;;;9.70;47.57;101287.00;5074895;28;45254;-63
2022/03/09 02:28:03;;;;;;;;;47.00;38.00;;;;;9.76;47.92;101285.88;5058885;28;44918;-63
2022/03/09 02:30:29;;;;;;;;;55.50;42.00;;;;;9.78;48.59;101285.84;5062714;28;45088;-62
2022/03/09 02:32:57;;;;;;;;;41.50;38.25;;;;;9.74;47.83;101285.94;5060341;28;45322;-60
2022/03/09 02:35:23;;;;;;;;;50.00;38.25;;;;;9.67;49.38;101279.19;5064416;28;45358;-60
2022/03/09 02:37:49;;;;;;;;;49.00;38.75;;;;;9.75;49.36;101297.44;5046472;28;45471;-62
2022/03/09 02:40:16;;;;;;;;;40.25;34.50;;;;;9.67;49.64;101278.31;5068907;28;45587;-59
2022/03/09 02:42:42;;;;;;;;;39.00;29.00;;;;;9.73;50.05;101299.28;5063152;28;45343;-62
2022/03/09 02:45:07;;;;;;;;;44.75;36.25;;;;;9.72;50.66;101292.25;5067817;28;45314;-63
2022/03/09 02:47:33;;;;;;;;;42.75;30.50;;;;;9.71;52.97;101291.41;5066309;28;46774;-61
2022/03/09 02:49:59;;;;;;;;;30.25;29.75;;;;;9.70;53.47;101294.97;5068927;28;45699;-61
2022/03/09 02:52:24;;;;;;;;;24.25;19.75;;;;;9.69;53.59;101292.41;5078366;28;45366;-62
2022/03/09 02:54:51;;;;;;;;;30.00;25.00;;;;;9.67;54.36;101288.94;5075036;28;45726;-63
2022/03/09 02:57:19;;;;;;;;;30.00;26.75;;;;;9.67;54.18;101296.91;5068683;28;45337;-61
2022/03/09 02:59:47;;;;;;;;;25.50;22.50;;;;;9.65;54.56;101299.63;5047063;28;46658;-64
2022/03/09 03:02:13;;;;;;;;;28.50;24.00;;;;;9.62;55.97;101291.75;5025242;28;45448;-62
2022/03/09 03:04:38;;;;;;;;;34.25;24.75;;;;;9.65;55.01;101296.97;5060902;28;45434;-62
2022/03/09 03:07:04;;;;;;;;;23.25;20.25;;;;;9.67;55.91;101315.50;5070944;28;45464;-61
2022/03/09 03:09:29;;;;;;;;;27.75;25.25;;;;;9.64;56.69;101310.31;5066431;28;46694;-63
2022/03/09 03:11:55;;;;;;;;;20.00;19.75;;;;;9.67;57.75;101315.50;5075355;28;45403;-63
2022/03/09 03:14:20;;;;;;;;;24.75;22.75;;;;;9.50;57.46;101286.94;5063602;28;45461;-61
2022/03/09 03:16:46;;;;;;;;;29.75;23.25;;;;;9.64;57.08;101320.94;5064983;28;45542;-60
2022/03/09 03:19:12;;;;;;;;;23.75;22.00;;;;;9.64;58.27;101312.97;5062986;28;45383;-61
2022/03/09 03:21:37;;;;;;;;;17.50;17.50;;;;;9.63;59.54;101308.56;5047192;28;45245;-62
2022/03/09 03:24:03;;;;;;;;;20.75;17.00;;;;;9.53;59.64;101296.59;5065196;28;45335;-62
2022/03/09 03:26:29;;;;;;;;;23.75;17.00;;;;;9.49;58.62;101284.34;5050042;28;45658;-60
2022/03/09 03:28:54;;;;;;;;;23.00;19.50;;;;;9.45;58.75;101281.84;5058155;28;45434;-61
2022/03/09 03:31:20;;;;;;;;;14.75;14.00;;;;;9.57;59.75;101307.03;5056672;28;45525;-61
2022/03/09 03:33:47;;;;;;;;;22.00;19.50;;;;;9.56;59.50;101305.31;5063986;28;45323;-61
2022/03/09 03:36:15;;;;;;;;;22.00;15.75;;;;;9.43;60.05;101272.22;5066626;28;45429;-64
2022/03/09 03:38:41;;;;;;;;;20.00;19.00;;;;;9.42;60.12;101279.31;5056434;28;45511;-62
2022/03/09 03:41:06;;;;;;;;;18.75;16.50;;;;;9.59;59.27;101306.97;5063819;28;45291;-61
2022/03/09 03:43:32;;;;;;;;;20.00;16.50;;;;;9.38;61.78;101272.41;5066059;28;45722;-62
2022/03/09 03:45:57;;;;;;;;;27.25;24.25;;;;;9.53;61.42;101307.22;5046767;28;45399;-61
2022/03/09 03:48:23;;;;;;;;;22.50;19.50;;;;;9.17;62.44;101249.38;5064625;28;45518;-61
2022/03/09 03:50:48;;;;;;;;;19.50;18.00;;;;;9.52;60.72;101305.50;5039081;28;45308;-62
2022/03/09 03:53:17;;;;;;;;;16.50;16.50;;;;;9.30;61.16;101263.88;5059423;28;45229;-60
2022/03/09 03:55:47;;;;;;;;;22.50;20.00;;;;;9.49;61.56;101294.97;5042398;28;45768;-60
2022/03/09 03:58:13;;;;;;;;;21.25;21.00;;;;;9.54;62.09;101303.66;5060199;28;46203;-60
2022/03/09 04:00:41;;;;;;;;;18.00;17.25;;;;;9.54;61.82;101301.00;5061026;28;45259;-61
2022/03/09 04:03:07;;;;;;;;;22.50;21.00;;;;;9.42;61.89;101289.94;5063505;28;45448;-61
2022/03/09 04:05:32;;;;;;;;;21.50;19.00;;;;;9.48;61.37;101304.75;5058320;28;45525;-62
2022/03/09 04:07:58;;;;;;;;;16.75;15.25;;;;;9.45;61.39;101300.41;5049010;28;46108;-61
2022/03/09 04:10:23;;;;;;;;;19.75;19.50;;;;;9.45;61.92;101302.22;5067884;28;45472;-62
2022/03/09 04:12:49;;;;;;;;;30.50;29.50;;;;;9.48;60.32;101317.16;5067284;28;45428;-59
2022/03/09 04:15:15;;;;;;;;;35.00;29.00;;;;;9.31;59.09;101292.16;5071207;28;46008;-61
2022/03/09 04:17:42;;;;;;;;;50.25;41.75;;;;;9.26;57.58;101296.78;5071422;28;45511;-61
2022/03/09 04:20:08;;;;;;;;;61.50;48.25;;;;;9.27;57.12;101301.16;5063835;28;45354;-65
2022/03/09 04:22:34;;;;;;;;;60.25;44.75;;;;;9.16;55.04;101303.38;5057398;28;45291;-63
2022/03/09 04:25:03;;;;;;;;;63.00;49.25;;;;;9.17;53.64;101326.31;5038964;28;45339;-60
2022/03/09 04:27:28;;;;;;;;;60.00;42.50;;;;;9.05;54.24;101302.91;5054819;28;45909;-59
2022/03/09 04:29:53;;;;;;;;;64.25;51.00;;;;;8.98;53.06;101304.06;5050447;28;45831;-61
2022/03/09 04:32:19;;;;;;;;;67.25;50.50;;;;;8.98;53.42;101312.88;5038313;28;45549;-60
2022/03/09 04:34:44;;;;;;;;;63.25;49.25;;;;;8.92;53.49;101315.78;5039769;28;45510;-60
2022/03/09 04:37:10;;;;;;;;;65.25;50.00;;;;;8.82;53.40;101303.78;5058483;28;45431;-60
2022/03/09 04:39:38;;;;;;;;;65.25;50.00;;;;;8.82;53.66;101309.94;5068435;28;45299;-60
2022/03/09 04:42:04;;;;;;;;;72.00;52.25;;;;;8.82;53.45;101307.28;5074531;28;45343;-60
2022/03/09 04:44:33;;;;;;;;;61.25;47.25;;;;;8.82;54.45;101309.94;5078619;28;44818;-64
2022/03/09 04:47:01;;;;;;;;;61.50;47.75;;;;;8.63;54.80;101278.88;5075955;28;45069;-61
2022/03/09 04:49:27;;;;;;;;;61.25;49.25;;;;;8.66;55.76;101298.19;5080952;28;45412;-60
2022/03/09 04:51:53;;;;;;;;;50.50;41.50;;;;;8.73;54.97;101320.06;5085889;28;44652;-66
2022/03/09 04:54:27;;;;;;;;;65.75;47.00;;;;;8.69;54.76;101329.03;5085006;28;44936;-60
2022/03/09 04:56:53;;;;;;;;;70.00;52.25;;;;;8.54;53.79;101311.88;5083895;28;45250;-61
2022/03/09 04:59:21;;;;;;;;;65.00;48.25;;;;;8.60;54.90;101334.69;5067045;28;45536;-60
2022/03/09 05:01:47;;;;;;;;;61.75;49.00;;;;;8.55;54.74;101334.81;5085266;28;44753;-62
2022/03/09 05:04:21;;;;;;;;;67.00;51.50;;;;;8.38;54.19;101319.53;5079770;28;44891;-65
2022/03/09 05:06:47;;;;;;;;;64.00;52.25;;;;;8.41;53.74;101335.31;5081214;28;45243;-62
2022/03/09 05:09:13;;;;;;;;;67.00;53.00;;;;;8.03;53.61;101299.50;5070054;28;45378;-61
2022/03/09 05:11:39;;;;;;;;;70.00;54.25;;;;;8.26;53.65;101342.00;5049562;28;45363;-65
2022/03/09 05:14:04;;;;;;;;;59.25;47.50;;;;;8.13;53.90;101339.81;5051821;28;45477;-60
2022/03/09 05:16:30;;;;;;;;;71.25;54.00;;;;;8.17;53.83;101352.03;5066687;28;47773;-61
2022/03/09 05:18:55;;;;;;;;;73.50;54.50;;;;;7.75;54.04;101290.78;5043982;28;44890;-62
2022/03/09 05:21:21;;;;;;;;;63.25;51.50;;;;;8.08;54.39;101352.34;5050484;28;45377;-61
2022/03/09 05:23:52;;;;;;;;;69.00;51.00;;;;;8.05;54.52;101358.59;5057486;28;44943;-63
2022/03/09 05:26:20;;;;;;;;;68.00;53.00;;;;;7.98;54.77;101354.44;5050499;28;46513;-61
2022/03/09 05:28:46;;;;;;;;;67.00;53.00;;;;;7.87;54.68;101343.31;5062985;28;45760;-63
2022/03/09 05:31:11;;;;;;;;;66.50;53.00;;;;;7.92;54.66;101367.88;5057539;28;45452;-62
2022/03/09 05:33:37;;;;;;;;;66.75;51.25;;;;;7.91;55.05;101363.50;5061763;28;45691;-63
2022/03/09 05:36:05;;;;;;;;;66.00;53.00;;;;;7.72;55.19;101343.84;5063404;28;45959;-61
2022/03/09 05:38:31;;;;;;;;;69.25;52.50;;;;;7.70;55.81;101343.88;5076135;28;45298;-62
2022/03/09 05:40:59;;;;;;;;;63.00;49.75;;;;;7.80;56.47;101373.56;5081259;28;45343;-62
2022/03/09 05:43:25;;;;;;;;;59.25;45.75;;;;;7.71;56.47;101366.81;5083005;28;45428;-63
2022/03/09 05:45:51;;;;;;;;;53.75;46.25;;;;;7.67;56.64;101381.88;5083287;28;44991;-62
2022/03/09 05:48:16;;;;;;;;;67.75;50.50;;;;;7.66;56.44;101377.50;5083616;28;44795;-58
2022/03/09 05:50:42;;;;;;;;;55.00;43.75;;;;;7.54;56.97;101377.03;5080557;28;44780;-60
2022/03/09 05:53:08;;;;;;;;;61.25;45.50;;;;;7.57;57.43;101401.66;5080360;28;45298;-61
2022/03/09 05:55:33;;;;;;;;;57.25;44.50;;;;;7.56;57.71;101394.63;5078910;28;45325;-62
2022/03/09 05:57:59;;;;;;;;;53.50;44.75;;;;;7.57;56.89;101387.53;5076706;28;44784;-59
2022/03/09 06:00:27;;;;;;;;;60.25;44.25;;;;;7.54;57.31;101391.13;5076970;28;45456;-60
2022/03/09 06:02:53;;;;;;;;;55.50;46.50;;;;;7.50;57.94;101392.16;5056161;28;45141;-60
2022/03/09 06:05:24;;;;;;;;;68.00;52.75;;;;;7.54;57.41;101403.50;5055092;28;46891;-62
2022/03/09 06:07:50;;;;;;;;;63.25;51.50;;;;;7.38;57.48;101376.63;5071395;28;45240;-63
2022/03/09 06:10:18;;;;;;;;;61.75;47.75;;;;;7.47;57.93;101408.13;5058350;28;45398;-64
2022/03/09 06:12:44;;;;;;;;;56.50;46.25;;;;;7.48;57.87;101404.56;5056947;28;45518;-64
2022/03/09 06:15:13;;;;;;;;;50.50;44.50;;;;;7.34;57.74;101390.88;5038619;28;45481;-64
2022/03/09 06:17:49;;;;;;;;;61.75;48.75;;;;;7.46;57.51;101411.69;5055794;28;45453;-63
2022/03/09 06:20:17;;;;;;;;;62.00;45.75;;;;;7.50;58.07;101410.69;5057050;28;45562;-65
2022/03/09 06:22:42;;;;;;;;;65.25;51.75;;;;;7.52;58.22;101410.63;5057698;28;45402;-64
2022/03/09 06:25:09;;;;;;;;;59.50;47.25;;;;;7.50;57.81;101409.81;5045313;28;46971;-62
2022/03/09 06:27:46;;;;;;;;;58.50;47.00;;;;;7.49;58.11;101411.59;5036995;28;45559;-64
2022/03/09 06:30:16;;;;;;;;;58.25;46.25;;;;;7.46;58.22;101400.25;5038833;28;45693;-64
2022/03/09 06:32:44;;;;;;;;;53.00;44.50;;;;;7.44;59.27;101408.22;5069296;28;46930;-61
2022/03/09 06:35:10;;;;;;;;;60.00;48.75;;;;;7.25;58.34;101378.78;5063467;28;45430;-63
2022/03/09 06:37:36;;;;;;;;;62.00;49.00;;;;;7.38;59.56;101403.09;5060536;28;45414;-62
2022/03/09 06:40:03;;;;;;;;;43.00;41.50;;;;;7.36;59.58;101410.22;5070930;28;45456;-65
2022/03/09 06:42:29;;;;;;;;;57.50;48.50;;;;;7.02;59.22;101374.16;5072063;28;45597;-64
2022/03/09 06:44:58;;;;;;;;;57.25;46.00;;;;;7.30;58.85;101418.34;5048358;28;46248;-63
2022/03/09 06:47:27;;;;;;;;;56.75;45.50;;;;;7.31;59.92;101420.09;5046629;28;45289;-64
2022/03/09 06:49:56;;;;;;;;;61.50;48.50;;;;;7.24;60.50;101415.88;5071873;28;45381;-64
2022/03/09 06:52:22;;;;;;;;;55.75;44.50;;;;;7.33;60.22;101419.13;5039635;28;46095;-59
2022/03/09 06:54:51;;;;;;;;;55.25;45.00;;;;;7.29;60.26;101419.25;5040578;28;45746;-64
2022/03/09 06:57:19;;;;;;;;;56.75;46.00;;;;;7.34;60.25;101417.34;5058282;28;45447;-63
2022/03/09 06:59:46;;;;;;;;;60.25;49.50;;;;;7.31;60.02;101409.50;5058471;28;45431;-63
2022/03/09 07:02:15;;;;;;;;;55.50;44.75;;;;;7.46;59.97;101432.88;5062857;28;45439;-64
2022/03/09 07:04:43;;;;;;;;;65.50;49.25;;;;;7.52;60.31;101430.03;5051788;28;46861;-65
2022/03/09 07:07:15;;;;;;;;;54.75;48.25;;;;;7.56;60.80;101431.69;5050150;28;45321;-62
2022/03/09 07:09:43;;;;;;;;;57.75;46.50;;;;;7.55;60.82;101437.91;5049842;28;45460;-67
2022/03/09 07:12:12;;;;;;;;;59.50;47.50;;;;;7.58;60.97;101443.09;5061238;28;45486;-64
2022/03/09 07:14:37;;;;;;;;;55.50;45.75;;;;;7.66;60.19;101451.66;5055696;28;45502;-70
2022/03/09 07:17:05;;;;;;;;;60.75;47.25;;;;;7.73;60.32;101456.78;5055748;28;45795;-64
2022/03/09 07:19:30;;;;;;;;;58.50;46.75;;;;;7.87;60.04;101455.44;5062121;28;45336;-64
2022/03/09 07:21:56;;;;;;;;;56.00;43.50;;;;;7.76;59.72;101422.25;5060980;28;45434;-62
2022/03/09 07:24:27;;;;;;;;;58.75;49.50;;;;;7.97;59.51;101461.31;5064219;28;45841;-68
2022/03/09 07:26:53;;;;;;;;;51.75;42.50;;;;;8.01;59.90;101470.03;5060068;28;45286;-62
2022/03/09 07:29:20;;;;;;;;;61.25;46.00;;;;;8.05;60.12;101461.06;5059660;28;45412;-63
2022/03/09 07:31:49;;;;;;;;;48.75;42.25;;;;;7.95;61.14;101440.19;5038491;28;45812;-62
2022/03/09 07:34:26;;;;;;;;;48.50;43.00;;;;;8.15;60.54;101476.63;5046082;28;45598;-63
2022/03/09 07:36:58;;;;;;;;;49.50;38.50;;;;;8.23;61.27;101479.91;5032593;28;45378;-62
2022/03/09 07:39:31;;;;;;;;;44.75;40.75;;;;;8.16;61.39;101465.09;5052201;28;46033;-61
2022/03/09 07:41:59;;;;;;;;;18.25;15.00;;;;;8.41;60.48;101482.88;5070231;28;45574;-62
2022/03/09 07:44:25;;;;;;;;;54.00;43.75;;;;;8.51;60.91;101476.38;5059767;28;46628;-65
2022/03/09 07:46:52;;;;;;;;;53.75;42.50;;;;;8.49;60.90;101472.91;5048463;28;45592;-64
2022/03/09 07:49:19;;;;;;;;;45.00;39.75;;;;;8.55;61.16;101475.34;5064679;28;45275;-65
2022/03/09 07:51:49;;;;;;;;;48.50;41.75;;;;;8.69;60.50;101483.69;5055842;28;45734;-62
2022/03/09 07:54:18;;;;;;;;;58.50;42.50;;;;;8.73;60.88;101488.00;5058725;28;45430;-69
2022/03/09 07:56:44;;;;;;;;;56.00;43.00;;;;;8.78;60.95;101486.03;5066611;28;45490;-60
2022/03/09 07:59:15;;;;;;;;;52.25;43.25;;;;;8.85;61.06;101492.88;5073740;28;45798;-63
2022/03/09 08:01:44;;;;;;;;;50.50;43.50;;;;;8.82;61.62;101485.00;5070550;28;45356;-63
2022/03/09 08:04:10;;;;;;;;;42.00;39.00;;;;;8.96;62.49;101496.91;5068458;28;45379;-65
2022/03/09 08:06:40;;;;;;;;;44.25;40.50;;;;;8.99;61.60;101497.69;5066303;28;45560;-64
2022/03/09 08:09:06;;;;;;;;;44.25;37.00;;;;;9.07;61.91;101500.94;5068051;28;45343;-62
2022/03/09 08:11:32;;;;;;;;;36.75;36.50;;;;;9.04;61.70;101478.97;5067583;28;45261;-64
2022/03/09 08:14:01;;;;;;;;;33.00;33.00;;;;;8.91;63.06;101462.59;5060403;28;45498;-66
2022/03/09 08:16:29;;;;;;;;;49.50;36.75;;;;;9.08;62.11;101492.06;5057901;28;45398;-59
2022/03/09 08:18:55;;;;;;;;;35.50;34.75;;;;;9.22;63.13;101504.81;5062498;28;45235;-63
2022/03/09 08:21:20;;;;;;;;;52.25;38.50;;;;;9.28;61.74;101488.69;5061249;28;45610;-64
2022/03/09 08:23:46;;;;;;;;;42.50;37.75;;;;;9.40;61.45;101493.56;5064020;28;45331;-61
2022/03/09 08:26:15;;;;;;;;;42.25;35.25;;;;;9.43;61.54;101493.44;5070419;28;45437;-62
2022/03/09 08:28:40;;;;;;;;;44.75;38.50;;;;;9.53;61.38;101504.59;5072005;28;45497;-63
2022/03/09 08:31:09;;;;;;;;;44.00;34.50;;;;;9.59;61.28;101498.19;5067595;28;45516;-61
2022/03/09 08:33:34;;;;;;;;;42.00;39.25;;;;;9.59;61.12;101498.19;5063909;28;45274;-64
2022/03/09 08:36:00;;;;;;;;;42.25;38.75;;;;;9.71;61.23;101500.38;5066318;28;45230;-61
2022/03/09 08:38:25;;;;;;;;;38.25;35.00;;;;;9.80;61.85;101499.16;5074539;28;45351;-62
2022/03/09 08:40:53;;;;;;;;;34.00;25.75;;;;;9.67;63.12;101512.03;5070188;28;45168;-64
2022/03/09 08:43:19;;;;;;;;;27.25;24.25;;;;;9.70;62.82;101506.59;5067729;28;45461;-62
2022/03/09 08:45:47;;;;;;;;;31.75;26.75;;;;;9.64;62.67;101513.03;5066863;28;45449;-63
2022/03/09 08:48:13;;;;;;;;;29.25;24.75;;;;;9.50;62.60;101471.97;5072949;28;45458;-62
2022/03/09 08:50:42;;;;;;;;;35.75;32.75;;;;;9.54;63.21;101474.47;5051827;28;45498;-61
2022/03/09 08:53:08;;;;;;;;;31.00;27.75;;;;;9.84;63.67;101504.28;5066510;28;45288;-63
2022/03/09 08:55:37;;;;;;;;;28.00;26.50;;;;;9.79;63.03;101505.41;5043730;28;45466;-60
2022/03/09 08:58:08;;;;;;;;;34.25;27.00;;;;;9.77;63.00;101501.94;5061466;28;45381;-63
2022/03/09 09:00:40;;;;;;;;;32.50;29.25;;;;;9.83;62.79;101517.63;5041849;28;45465;-62
2022/03/09 09:03:05;;;;;;;;;34.75;29.75;;;;;9.65;63.79;101497.97;5059312;28;46147;-64
2022/03/09 09:05:33;;;;;;;;;35.25;32.25;;;;;9.63;64.41;101521.03;5060976;28;45477;-62
2022/03/09 09:07:59;;;;;;;;;28.75;28.00;;;;;9.57;64.54;101500.03;5051046;28;45391;-62
2022/03/09 09:10:33;;;;;;;;;30.50;23.50;;;;;9.60;64.74;101506.09;5071361;28;45062;-62
2022/03/09 09:12:58;;;;;;;;;29.50;26.50;;;;;9.52;64.85;101494.03;5061315;28;45513;-62
2022/03/09 09:15:25;;;;;;;;;35.25;29.25;;;;;9.40;64.88;101487.38;5059592;28;45541;-63
2022/03/09 09:18:05;;;;;;;;;28.50;27.00;;;;;9.63;64.59;101515.72;5063795;28;45445;-61
2022/03/09 09:20:38;;;;;;;;;28.25;28.25;;;;;9.74;65.45;101518.84;5071492;28;45282;-62
2022/03/09 09:23:10;;;;;;;;;33.75;26.00;;;;;9.70;65.12;101509.25;5069126;28;45418;-62
2022/03/09 09:25:36;;;;;;;;;32.25;32.25;;;;;9.77;65.73;101508.13;5051728;28;45662;-62
2022/03/09 09:28:02;;;;;;;;;31.75;27.50;;;;;9.86;64.03;101505.09;5066208;28;45317;-61
2022/03/09 09:30:30;;;;;;;;;27.00;26.75;;;;;9.89;63.82;101482.84;5072076;28;44908;-62
2022/03/09 09:32:57;;;;;;;;;28.75;24.25;;;;;9.97;64.77;101484.28;5069761;28;46128;-64
2022/03/09 09:35:23;;;;;;;;;34.25;29.50;;;;;10.15;63.45;101476.50;5056035;28;45200;-60
2022/03/09 09:37:50;;;;;;;;;36.75;27.50;;;;;10.07;64.17;101441.41;5059541;28;45433;-64
2022/03/09 09:40:16;;;;;;;;;34.25;27.75;;;;;10.23;62.58;101446.06;5074511;28;44812;-61
2022/03/09 09:42:42;;;;;;;;;27.50;25.75;;;;;10.53;62.29;101482.94;5067617;28;46729;-62
2022/03/09 09:45:09;;;;;;;;;25.25;22.00;;;;;10.73;62.36;101487.44;5070065;28;45343;-62
2022/03/09 09:47:35;;;;;;;;;30.75;28.50;;;;;10.84;62.33;101487.84;5073828;28;44681;-62
2022/03/09 09:50:06;;;;;;;;;29.00;24.75;;;;;10.98;62.24;101485.47;5066015;28;45212;-62
2022/03/09 09:52:33;;;;;;;;;31.00;25.25;;;;;11.10;61.93;101476.06;5062032;28;46140;-64
2022/03/09 09:55:02;;;;;;;;;23.00;20.25;;;;;11.14;62.05;101480.31;5061040;28;45396;-60
2022/03/09 09:57:29;;;;;;;;;21.00;18.00;;;;;10.98;62.02;101456.19;5043760;28;45726;-61
2022/03/09 09:59:55;;;;;;;;;16.00;12.25;;;;;10.93;62.39;101443.06;5064826;28;45425;-62
2022/03/09 10:02:21;;;;;;;;;14.50;12.00;;;;;11.18;61.22;101482.78;5066946;28;45423;-65
2022/03/09 10:04:50;;;;;;;;;15.00;13.00;;;;;11.29;61.60;101481.44;5065910;28;45398;-62
2022/03/09 10:07:15;;;;;;;;;17.25;15.50;;;;;11.33;60.97;101467.03;5066477;28;45288;-61
2022/03/09 10:09:42;;;;;;;;;20.25;17.75;;;;;11.45;61.90;101474.47;5061974;28;45385;-60
2022/03/09 10:12:09;;;;;;;;;20.00;17.50;;;;;11.48;61.39;101474.34;5058995;28;45442;-62
2022/03/09 10:14:52;;;;;;;;;17.75;15.75;;;;;11.54;60.80;101463.41;5057710;28;45463;-62
2022/03/09 10:17:23;;;;;;;;;18.50;16.75;;;;;11.39;60.70;101418.84;5063322;28;45725;-63
2022/03/09 10:19:51;;;;;;;;;17.75;14.50;;;;;11.63;61.30;101467.47;5062290;28;45319;-61
2022/03/09 10:22:26;;;;;;;;;21.25;15.25;;;;;11.70;60.70;101475.06;5062455;28;45260;-61
2022/03/09 10:24:53;;;;;;;;;10.75;10.75;;;;;11.57;60.13;101425.09;5066784;28;45351;-62
2022/03/09 10:27:32;;;;;;;;;20.75;16.75;;;;;11.92;59.84;101464.31;5066209;28;45379;-62
2022/03/09 10:30:04;;;;;;;;;19.50;15.50;;;;;11.99;60.08;101470.22;5058564;28;45375;-62
2022/03/09 10:32:45;;;;;;;;;16.50;16.50;;;;;12.03;59.61;101471.78;5064531;28;45455;-63
2022/03/09 10:35:12;;;;;;;;;15.00;15.00;;;;;12.14;59.25;101469.47;5069214;28;45231;-63
2022/03/09 10:37:43;;;;;;;;;19.00;15.00;;;;;12.05;59.11;101453.91;5069216;28;45329;-62
2022/03/09 10:40:13;;;;;;;;;18.25;15.25;;;;;12.03;58.55;101458.47;5068732;28;44928;-63
2022/03/09 10:42:39;;;;;;;;;23.50;20.25;;;;;12.01;59.30;101461.22;5055519;28;46628;-61
2022/03/09 10:45:07;;;;;;;;;19.50;17.75;;;;;12.00;59.54;101440.81;5072203;28;45374;-62
2022/03/09 10:47:42;;;;;;;;;16.50;16.50;;;;;12.19;58.88;101456.78;5072840;28;45404;-62
2022/03/09 10:50:22;;;;;;;;;19.25;17.25;;;;;12.18;58.58;101449.72;5071011;28;45503;-63
2022/03/09 10:52:55;;;;;;;;;16.75;16.75;;;;;11.99;58.96;101427.56;5073062;28;45366;-63
2022/03/09 10:55:35;;;;;;;;;22.00;18.50;;;;;12.13;59.15;101457.09;5068183;28;45237;-62
2022/03/09 10:58:10;;;;;;;;;18.25;18.25;;;;;12.28;58.95;101459.00;5070475;28;45771;-61
2022/03/09 11:00:45;;;;;;;;;15.50;14.00;;;;;12.19;58.67;101429.25;5073707;28;45366;-61
2022/03/09 11:03:14;;;;;;;;;15.33;14.00;;;;;12.40;58.04;101444.19;5075051;28;45196;-62
2022/03/09 11:05:52;;;;;;;;;19.25;13.50;;;;;12.60;57.51;101443.16;5074228;28;45351;-64
2022/03/09 11:08:20;;;;;;;;;20.25;15.75;;;;;12.79;57.31;101456.44;5072131;28;45283;-61
2022/03/09 11:10:46;;;;;;;;;19.00;17.75;;;;;12.64;56.67;101396.72;5072469;28;45393;-63
2022/03/09 11:13:13;;;;;;;;;18.25;16.50;;;;;12.85;56.54;101416.94;5058802;28;47565;-62
2022/03/09 11:15:42;;;;;;;;;19.00;16.75;;;;;13.11;55.99;101446.75;5078229;28;45396;-61
2022/03/09 11:18:11;;;;;;;;;15.00;12.67;;;;;13.04;55.97;101451.56;5060278;28;45330;-63
2022/03/09 11:20:37;;;;;;;;;15.00;15.00;;;;;12.93;56.48;101456.59;5075207;28;45908;-63